Time;durP1;ratioP1;P1;durP2;ratioP2;P2;SDS_P1;SDS_P2;PMS_P1;PMS_P2;Temp;Humidity;BMP_temperature;BMP_pressure;BME280_temperature;BME280_humidity;BME280_pressure;Samples;Min_cycle;Max_cycle;Signal;HPM_P1;HPM_P2
2023/11/23 00:00:38;;;;;;;;;;;;;;;16.73;44.57;101380.66;5078407;28;1082;-54
2023/11/23 00:03:05;;;;;;;;;;;;;;;16.53;43.92;101393.41;5078496;28;1909;-53
2023/11/23 00:05:31;;;;;;;;;;;;;;;17.02;45.45;101401.84;5078811;28;1071;-53
2023/11/23 00:07:57;;;;;;;;;;;;;;;16.86;45.20;101399.31;5078675;28;1028;-55
2023/11/23 00:10:23;;;;;;;;;;;;;;;16.59;44.47;101408.06;5078555;28;1159;-53
2023/11/23 00:12:48;;;;;;;;;;;;;;;16.45;43.66;101409.78;5078624;28;1055;-54
2023/11/23 00:15:14;;;;;;;;;;;;;;;17.12;44.98;101416.28;5078855;28;1198;-52
2023/11/23 00:17:39;;;;;;;;;;;;;;;16.64;44.69;101406.00;5078385;28;1137;-52
2023/11/23 00:20:11;;;;;;;;;;;;;;;17.79;45.17;101410.19;5078053;28;1227;-54
2023/11/23 00:22:37;;;;;;;;;;;;;;;17.56;45.17;101413.47;5078488;28;1969;-53
2023/11/23 00:25:04;;;;;;;;;;;;;;;16.89;44.99;101417.72;5078034;28;1019;-54
2023/11/23 00:27:30;;;;;;;;;;;;;;;16.70;43.91;101426.84;5078331;28;1059;-54
2023/11/23 00:29:56;;;;;;;;;;;;;;;17.23;45.57;101420.88;5077689;28;1165;-54
2023/11/23 00:32:22;;;;;;;;;;;;;;;16.97;45.54;101417.22;5078437;28;1079;-53
2023/11/23 00:34:48;;;;;;;;;;;;;;;17.34;46.07;101422.00;5059855;28;1063;-54
2023/11/23 00:37:14;;;;;;;;;;;;;;;18.11;44.80;101423.13;5078274;28;1048;-55
2023/11/23 00:39:40;;;;;;;;;;;;;;;14.87;50.92;101421.47;5060204;28;1128;-53
2023/11/23 00:42:05;;;;;;;;;;;;;;;17.50;47.27;101414.72;5059575;28;2003;-54
2023/11/23 00:44:31;;;;;;;;;;;;;;;17.31;46.32;101425.72;5077848;28;1156;-54
2023/11/23 00:46:57;;;;;;;;;;;;;;;16.92;45.67;101424.63;5077939;28;1130;-55
2023/11/23 00:49:23;;;;;;;;;;;;;;;16.65;44.71;101428.94;5060310;28;1099;-54
2023/11/23 00:51:49;;;;;;;;;;;;;;;16.95;46.10;101441.25;5077624;28;1086;-54
2023/11/23 00:54:14;;;;;;;;;;;;;;;16.97;45.84;101428.72;5077527;28;1027;-54
2023/11/23 00:56:41;;;;;;;;;;;;;;;17.44;46.30;101428.41;5059867;28;1914;-52
2023/11/23 00:59:06;;;;;;;;;;;;;;;17.99;45.56;101432.78;5077398;28;1032;-53
2023/11/23 01:01:32;;;;;;;;;;;;;;;15.14;50.99;101439.44;5077652;28;1977;-53
2023/11/23 01:03:57;;;;;;;;;;;;;;;17.48;47.75;101434.41;5059637;28;1043;-54
2023/11/23 01:06:23;;;;;;;;;;;;;;;17.42;46.72;101429.47;5059376;28;857;-54
2023/11/23 01:08:48;;;;;;;;;;;;;;;16.97;46.14;101438.47;5059369;28;1008;-54
2023/11/23 01:11:14;;;;;;;;;;;;;;;16.72;44.96;101440.03;5077275;28;1212;-54
2023/11/23 01:13:41;;;;;;;;;;;;;;;16.53;44.52;101442.03;5077322;28;1230;-54
2023/11/23 01:16:07;;;;;;;;;;;;;;;17.21;46.44;101440.56;5077120;28;1155;-54
2023/11/23 01:18:32;;;;;;;;;;;;;;;16.96;46.10;101444.75;5077128;28;1015;-54
2023/11/23 01:20:58;;;;;;;;;;;;;;;16.61;45.42;101452.22;5077347;28;1032;-53
2023/11/23 01:23:23;;;;;;;;;;;;;;;17.11;46.40;101454.47;5058967;28;1909;-55
2023/11/23 01:25:49;;;;;;;;;;;;;;;16.78;46.11;101471.56;5076995;28;1122;-54
2023/11/23 01:28:14;;;;;;;;;;;;;;;16.54;44.97;101464.16;5059071;28;1548;-55
2023/11/23 01:30:40;;;;;;;;;;;;;;;16.67;45.43;101458.06;5058943;28;1477;-54
2023/11/23 01:33:05;;;;;;;;;;;;;;;16.87;45.63;101462.13;5076819;28;1115;-55
2023/11/23 01:35:31;;;;;;;;;;;;;;;16.48;45.24;101461.88;5076638;28;896;-55
2023/11/23 01:37:56;;;;;;;;;;;;;;;16.68;45.61;101468.63;5077175;28;1096;-56
2023/11/23 01:40:22;;;;;;;;;;;;;;;16.91;45.69;101484.94;5076895;28;1031;-52
2023/11/23 01:42:47;;;;;;;;;;;;;;;16.58;44.76;101486.06;5075842;28;1969;-52
2023/11/23 01:45:13;;;;;;;;;;;;;;;17.63;45.51;101477.75;5077056;28;1083;-54
2023/11/23 01:47:42;;;;;;;;;;;;;;;16.89;45.60;101473.53;5076457;28;1401;-53
2023/11/23 01:50:08;;;;;;;;;;;;;;;17.08;46.42;101473.19;5076541;28;1066;-53
2023/11/23 01:52:34;;;;;;;;;;;;;;;17.37;45.84;101472.31;5058652;28;1602;-55
2023/11/23 01:55:00;;;;;;;;;;;;;;;16.85;45.30;101482.66;5076578;28;917;-53
2023/11/23 01:57:27;;;;;;;;;;;;;;;16.69;44.35;101486.25;5076501;28;1114;-55
2023/11/23 01:59:53;;;;;;;;;;;;;;;17.50;45.69;101493.66;5059134;28;1117;-55
2023/11/23 02:02:18;;;;;;;;;;;;;;;16.84;45.58;101497.75;5058124;28;1910;-55
2023/11/23 02:04:44;;;;;;;;;;;;;;;16.98;46.21;101496.84;5058296;28;1183;-54
2023/11/23 02:07:10;;;;;;;;;;;;;;;17.40;45.69;101495.22;5076401;28;1167;-55
2023/11/23 02:09:35;;;;;;;;;;;;;;;16.80;45.60;101500.69;5076285;28;1210;-55
2023/11/23 02:12:01;;;;;;;;;;;;;;;18.08;45.31;101489.91;5076441;28;1244;-53
2023/11/23 02:14:27;;;;;;;;;;;;;;;17.27;45.66;101476.56;5058527;28;1059;-53
2023/11/23 02:16:53;;;;;;;;;;;;;;;16.96;44.87;101497.91;5058498;28;1375;-53
2023/11/23 02:19:19;;;;;;;;;;;;;;;16.76;44.03;101492.03;5076243;28;877;-55
2023/11/23 02:21:44;;;;;;;;;;;;;;;16.61;43.67;101494.72;5076199;28;1897;-54
2023/11/23 02:24:11;;;;;;;;;;;;;;;16.70;44.72;101503.06;5076173;28;854;-53
2023/11/23 02:26:36;;;;;;;;;;;;;;;17.22;45.51;101501.63;5076228;28;1079;-55
2023/11/23 02:29:04;;;;;;;;;;;;;;;16.73;45.14;101509.00;5076365;28;1218;-53
2023/11/23 02:31:32;;;;;;;;;;;;;;;17.32;46.29;101507.19;5075608;28;1144;-52
2023/11/23 02:33:58;;;;;;;;;;;;;;;17.03;45.67;101504.56;5076287;28;1155;-53
2023/11/23 02:36:23;;;;;;;;;;;;;;;16.82;46.60;101507.59;5076053;28;1106;-54
2023/11/23 02:38:49;;;;;;;;;;;;;;;17.66;45.56;101501.50;5076277;28;1098;-54
2023/11/23 02:41:14;;;;;;;;;;;;;;;17.00;45.58;101508.25;5057782;28;1914;-54
2023/11/23 02:43:40;;;;;;;;;;;;;;;16.72;44.66;101502.00;5076118;28;926;-53
2023/11/23 02:46:05;;;;;;;;;;;;;;;16.70;45.03;101503.06;5075807;28;1024;-53
2023/11/23 02:48:31;;;;;;;;;;;;;;;17.05;45.88;101500.00;5076034;28;1035;-54
2023/11/23 02:50:56;;;;;;;;;;;;;;;16.66;45.16;101505.03;5076132;28;1076;-52
2023/11/23 02:53:30;;;;;;;;;;;;;;;17.05;45.84;101497.31;5075741;28;1198;-52
2023/11/23 02:55:55;;;;;;;;;;;;;;;16.99;45.44;101503.91;5075364;28;1024;-50
2023/11/23 02:58:21;;;;;;;;;;;;;;;16.68;44.35;101508.47;5058201;28;1203;-52
2023/11/23 03:00:48;;;;;;;;;;;;;;;16.63;45.11;101507.91;5076139;28;1242;-51
2023/11/23 03:03:13;;;;;;;;;;;;;;;17.49;45.17;101500.78;5076060;28;1901;-53
2023/11/23 03:05:39;;;;;;;;;;;;;;;16.86;44.84;101506.47;5075482;28;1007;-51
2023/11/23 03:08:05;;;;;;;;;;;;;;;16.63;44.32;101510.56;5075784;28;872;-52
2023/11/23 03:10:30;;;;;;;;;;;;;;;16.38;43.76;101510.22;5075958;28;1155;-53
2023/11/23 03:12:56;;;;;;;;;;;;;;;17.08;45.54;101501.63;5075987;28;1071;-54
2023/11/23 03:15:21;;;;;;;;;;;;;;;16.65;44.82;101498.00;5078899;28;1048;-52
2023/11/23 03:17:47;;;;;;;;;;;;;;;16.48;44.14;101497.22;5061490;28;1051;-51
2023/11/23 03:20:12;;;;;;;;;;;;;;;17.31;45.11;101499.31;5044770;28;859;-52
2023/11/23 03:22:38;;;;;;;;;;;;;;;16.64;45.16;101499.81;5051631;28;1905;-51
2023/11/23 03:25:04;;;;;;;;;;;;;;;17.92;44.96;101506.91;5061223;28;1130;-53
2023/11/23 03:27:29;;;;;;;;;;;;;;;15.81;49.13;101517.03;5079228;28;1063;-51
2023/11/23 03:29:55;;;;;;;;;;;;;;;16.33;49.61;101525.56;5079445;28;1114;-52
2023/11/23 03:32:21;;;;;;;;;;;;;;;18.18;45.56;101517.66;5078672;28;1069;-52
2023/11/23 03:34:46;;;;;;;;;;;;;;;17.23;46.34;101527.25;5078968;28;1028;-53
2023/11/23 03:37:11;;;;;;;;;;;;;;;16.93;46.50;101538.84;5079000;28;1137;-53
2023/11/23 03:39:37;;;;;;;;;;;;;;;17.44;46.39;101540.13;5079331;28;1067;-53
2023/11/23 03:42:05;;;;;;;;;;;;;;;16.96;45.42;101536.00;5061340;28;1989;-53
2023/11/23 03:44:30;;;;;;;;;;;;;;;17.09;46.85;101530.78;5078950;28;924;-51
2023/11/23 03:46:56;;;;;;;;;;;;;;;17.29;46.10;101535.78;5078697;28;1428;-51
2023/11/23 03:49:21;;;;;;;;;;;;;;;16.84;45.09;101534.94;5065862;28;997;-52
2023/11/23 03:51:48;;;;;;;;;;;;;;;16.67;44.31;101533.31;5079117;28;1191;-53
2023/11/23 03:54:14;;;;;;;;;;;;;;;17.02;45.58;101540.06;5079009;28;1092;-53
2023/11/23 03:56:40;;;;;;;;;;;;;;;16.80;45.64;101546.69;5078609;28;971;-54
2023/11/23 03:59:06;;;;;;;;;;;;;;;16.62;44.36;101535.38;5078899;28;1106;-44
2023/11/23 04:01:31;;;;;;;;;;;;;;;17.20;45.77;101545.22;5079148;28;1976;-48
2023/11/23 04:03:57;;;;;;;;;;;;;;;16.93;45.61;101545.94;5078793;28;988;-47
2023/11/23 04:06:23;;;;;;;;;;;;;;;16.69;44.79;101550.03;5079124;28;1087;-49
2023/11/23 04:08:49;;;;;;;;;;;;;;;17.32;45.51;101560.38;5078231;28;1070;-48
2023/11/23 04:11:14;;;;;;;;;;;;;;;16.80;45.13;101556.50;5078846;28;1091;-49
2023/11/23 04:13:40;;;;;;;;;;;;;;;17.50;45.54;101547.72;5078622;28;1047;-47
2023/11/23 04:16:05;;;;;;;;;;;;;;;17.65;44.95;101550.34;5078703;28;1115;-45
2023/11/23 04:18:31;;;;;;;;;;;;;;;17.00;45.25;101548.13;5077785;28;1134;-45
2023/11/23 04:20:56;;;;;;;;;;;;;;;16.77;44.29;101537.13;5078403;28;1297;-50
2023/11/23 04:23:22;;;;;;;;;;;;;;;16.63;43.43;101535.28;5078484;28;1973;-49
2023/11/23 04:25:47;;;;;;;;;;;;;;;17.16;45.45;101538.38;5059714;28;1067;-49
2023/11/23 04:28:13;;;;;;;;;;;;;;;16.76;44.79;101539.88;5077750;28;1110;-48
2023/11/23 04:30:39;;;;;;;;;;;;;;;16.47;44.28;101529.19;5073120;28;1459;-50
2023/11/23 04:33:04;;;;;;;;;;;;;;;17.36;45.18;101537.97;5069963;28;1147;-52
2023/11/23 04:35:30;;;;;;;;;;;;;;;16.83;45.07;101546.50;5078241;28;1175;-53
2023/11/23 04:37:55;;;;;;;;;;;;;;;17.05;46.07;101562.94;5073195;28;1148;-52
2023/11/23 04:40:21;;;;;;;;;;;;;;;17.38;45.13;101578.59;5061389;28;981;-51
2023/11/23 04:42:46;;;;;;;;;;;;;;;16.76;44.97;101580.59;5068768;28;2301;-49
2023/11/23 04:45:12;;;;;;;;;;;;;;;16.53;44.13;101590.78;5077343;28;856;-45
2023/11/23 04:47:37;;;;;;;;;;;;;;;17.09;45.14;101591.94;5077582;28;987;-49
2023/11/23 04:50:03;;;;;;;;;;;;;;;16.62;44.87;101585.88;5065822;28;992;-47
2023/11/23 04:52:29;;;;;;;;;;;;;;;16.50;44.01;101577.69;5077048;28;1120;-51
2023/11/23 04:54:54;;;;;;;;;;;;;;;17.24;44.91;101576.84;5077394;28;1086;-47
2023/11/23 04:57:20;;;;;;;;;;;;;;;16.53;45.15;101592.59;5076116;28;1139;-45
2023/11/23 04:59:45;;;;;;;;;;;;;;;16.45;43.77;101602.81;5077352;28;1356;-46
2023/11/23 05:02:11;;;;;;;;;;;;;;;17.29;44.78;101600.47;5077086;28;1901;-46
2023/11/23 05:04:36;;;;;;;;;;;;;;;16.69;44.91;101597.84;5077737;28;1281;-45
2023/11/23 05:07:02;;;;;;;;;;;;;;;16.49;43.97;101605.19;5077890;28;967;-47
2023/11/23 05:09:27;;;;;;;;;;;;;;;16.87;45.41;101616.28;5077428;28;767;-47
2023/11/23 05:11:53;;;;;;;;;;;;;;;16.89;44.58;101612.59;5078071;28;911;-47
2023/11/23 05:14:19;;;;;;;;;;;;;;;16.48;44.55;101600.81;5077593;28;1131;-48
2023/11/23 05:16:44;;;;;;;;;;;;;;;16.97;45.49;101603.28;5077536;28;774;-43
2023/11/23 05:19:10;;;;;;;;;;;;;;;16.79;45.03;101614.09;5076836;28;1290;-45
2023/11/23 05:21:35;;;;;;;;;;;;;;;16.97;45.75;101613.91;5077110;28;1969;-47
2023/11/23 05:24:01;;;;;;;;;;;;;;;17.90;44.23;101609.94;5076765;28;1321;-45
2023/11/23 05:26:26;;;;;;;;;;;;;;;16.96;44.74;101620.19;5077141;28;827;-47
2023/11/23 05:28:52;;;;;;;;;;;;;;;16.74;44.67;101611.72;5077480;28;822;-47
2023/11/23 05:31:17;;;;;;;;;;;;;;;17.57;43.64;101625.31;5076678;28;1144;-47
2023/11/23 05:33:43;;;;;;;;;;;;;;;17.19;44.58;101621.47;5077271;28;771;-50
2023/11/23 05:38:57;;;;;;;;;;;;;;;16.67;45.59;101614.81;5374509;23;6902;-47
2023/11/23 05:41:22;;;;;;;;;;;;;;;16.49;46.13;101620.28;4961619;28;1902;-47
2023/11/23 05:43:50;;;;;;;;;;;;;;;16.36;46.42;101615.69;4964132;28;1074;-44
2023/11/23 05:46:16;;;;;;;;;;;;;;;16.94;45.21;101624.72;4955962;28;1401;-45
2023/11/23 05:48:41;;;;;;;;;;;;;;;17.00;44.97;101642.97;4967180;28;1136;-47
2023/11/23 05:51:07;;;;;;;;;;;;;;;16.62;45.94;101636.34;4962167;28;1125;-47
2023/11/23 05:53:32;;;;;;;;;;;;;;;16.50;46.09;101643.22;4977372;28;1032;-49
2023/11/23 05:55:58;;;;;;;;;;;;;;;17.29;44.60;101642.16;4964154;28;1060;-44
2023/11/23 05:58:24;;;;;;;;;;;;;;;16.71;45.72;101643.78;4970087;28;1093;-46
2023/11/23 06:00:49;;;;;;;;;;;;;;;16.58;46.01;101640.13;4971055;28;1184;-47
2023/11/23 06:03:15;;;;;;;;;;;;;;;17.41;44.14;101638.75;4966072;28;1922;-48
2023/11/23 06:05:41;;;;;;;;;;;;;;;16.85;45.16;101640.28;4960675;28;1259;-46
2023/11/23 06:08:06;;;;;;;;;;;;;;;16.58;45.84;101637.47;4962297;28;1315;-49
2023/11/23 06:10:33;;;;;;;;;;;;;;;17.33;44.59;101641.03;4977148;28;1053;-48
2023/11/23 06:12:58;;;;;;;;;;;;;;;17.13;44.76;101635.97;4962897;28;1193;-48
2023/11/23 06:15:24;;;;;;;;;;;;;;;16.78;45.36;101636.31;4957967;28;1062;-47
2023/11/23 06:17:49;;;;;;;;;;;;;;;16.53;45.95;101643.06;4970850;28;1034;-44
2023/11/23 06:20:15;;;;;;;;;;;;;;;16.70;45.70;101638.56;4972156;28;1038;-46
2023/11/23 06:22:40;;;;;;;;;;;;;;;17.61;43.72;101639.31;4970446;28;1979;-48
2023/11/23 06:25:07;;;;;;;;;;;;;;;16.92;45.15;101632.78;4945418;28;987;-46
2023/11/23 06:27:34;;;;;;;;;;;;;;;16.62;45.76;101644.31;4970679;28;1022;-44
2023/11/23 06:29:59;;;;;;;;;;;;;;;17.49;44.20;101652.44;4970906;28;1085;-47
2023/11/23 06:32:25;;;;;;;;;;;;;;;16.99;45.01;101651.88;4964922;28;1096;-47
2023/11/23 06:34:51;;;;;;;;;;;;;;;16.65;45.96;101644.97;4951567;28;1207;-45
2023/11/23 06:37:16;;;;;;;;;;;;;;;17.02;45.27;101646.38;4977212;28;1029;-47
2023/11/23 06:39:42;;;;;;;;;;;;;;;17.30;44.31;101635.91;4970145;28;1140;-44
2023/11/23 06:42:08;;;;;;;;;;;;;;;16.82;45.44;101640.47;4957329;28;1906;-47
2023/11/23 06:44:33;;;;;;;;;;;;;;;16.56;46.05;101648.19;4970754;28;1146;-48
2023/11/23 06:47:00;;;;;;;;;;;;;;;17.45;44.32;101656.22;4957782;28;1010;-47
2023/11/23 06:49:26;;;;;;;;;;;;;;;16.98;45.13;101658.16;4978594;28;1070;-44
2023/11/23 06:51:52;;;;;;;;;;;;;;;16.64;45.94;101659.22;4980464;28;1506;-44
2023/11/23 06:54:17;;;;;;;;;;;;;;;17.46;44.37;101659.75;4974140;28;1017;-46
2023/11/23 06:56:43;;;;;;;;;;;;;;;17.15;44.60;101664.28;4966928;28;1133;-50
2023/11/23 06:59:08;;;;;;;;;;;;;;;16.77;45.60;101659.34;4967049;28;1065;-43
2023/11/23 07:01:34;;;;;;;;;;;;;;;16.96;45.34;101658.25;4980737;28;1911;-46
2023/11/23 07:03:59;;;;;;;;;;;;;;;17.31;44.50;101656.22;4966680;28;1064;-48
2023/11/23 07:06:26;;;;;;;;;;;;;;;16.75;45.50;101652.41;4967591;28;1239;-48
2023/11/23 07:08:51;;;;;;;;;;;;;;;16.55;46.07;101646.47;4973639;28;1088;-48
2023/11/23 07:11:18;;;;;;;;;;;;;;;16.95;45.47;101651.22;4974364;28;1112;-47
2023/11/23 07:13:44;;;;;;;;;;;;;;;17.25;44.63;101642.34;4980631;28;1158;-48
2023/11/23 07:16:12;;;;;;;;;;;;;;;16.77;45.47;101634.56;4979393;28;1037;-47
2023/11/23 07:18:38;;;;;;;;;;;;;;;16.51;46.30;101624.56;4961009;28;1248;-49
2023/11/23 07:21:04;;;;;;;;;;;;;;;17.32;44.72;101633.97;4966913;28;1148;-48
2023/11/23 07:23:29;;;;;;;;;;;;;;;17.05;44.94;101643.53;4973846;28;1895;-47
2023/11/23 07:25:55;;;;;;;;;;;;;;;16.67;45.67;101649.34;4953827;29;1236;-45
2023/11/23 07:28:26;;;;;;;;;;;;;;;17.31;44.85;101651.78;4960117;28;1497;-49
2023/11/23 07:30:53;;;;;;;;;;;;;;;17.15;44.97;101656.31;4974139;28;1215;-47
2023/11/23 07:33:18;;;;;;;;;;;;;;;16.72;45.76;101649.94;4961042;28;1028;-49
2023/11/23 07:35:48;;;;;;;;;;;;;;;17.33;44.52;101649.00;4973355;28;1092;-49
2023/11/23 07:38:14;;;;;;;;;;;;;;;17.24;44.45;101643.31;4970115;28;1049;-45
2023/11/23 07:40:39;;;;;;;;;;;;;;;16.75;45.70;101641.78;4966825;28;1116;-50
2023/11/23 07:43:05;;;;;;;;;;;;;;;16.99;45.58;101634.16;4970599;28;1976;-44
2023/11/23 07:45:31;;;;;;;;;;;;;;;17.34;44.32;101646.25;4966712;28;1041;-47
2023/11/23 07:47:56;;;;;;;;;;;;;;;16.85;45.74;101634.97;4979757;28;1018;-46
2023/11/23 07:50:22;;;;;;;;;;;;;;;16.58;46.21;101642.78;4966483;28;1009;-49
2023/11/23 07:52:47;;;;;;;;;;;;;;;17.37;44.57;101638.09;4964694;28;1330;-48
2023/11/23 07:55:15;;;;;;;;;;;;;;;17.07;44.96;101624.81;4968379;28;1109;-47
2023/11/23 07:57:42;;;;;;;;;;;;;;;16.70;45.90;101612.81;4968771;28;1036;-49
2023/11/23 08:00:07;;;;;;;;;;;;;;;16.44;46.33;101612.56;4968041;28;1093;-45
2023/11/23 08:02:33;;;;;;;;;;;;;;;17.29;44.86;101620.88;4977511;28;1910;-46
2023/11/23 08:04:59;;;;;;;;;;;;;;;17.15;44.73;101633.22;4968418;28;1033;-47
2023/11/23 08:07:25;;;;;;;;;;;;;;;16.68;45.83;101624.50;4966468;28;1357;-48
2023/11/23 08:09:51;;;;;;;;;;;;;;;17.01;45.56;101629.59;4968606;28;885;-47
2023/11/23 08:12:18;;;;;;;;;;;;;;;17.38;44.20;101621.16;4963892;28;1136;-46
2023/11/23 08:14:43;;;;;;;;;;;;;;;16.85;45.60;101626.16;4960942;28;1128;-48
2023/11/23 08:17:11;;;;;;;;;;;;;;;16.55;46.08;101622.56;4960055;28;1120;-45
2023/11/23 08:19:37;;;;;;;;;;;;;;;17.18;45.22;101621.56;4948926;29;1241;-46
2023/11/23 08:22:03;;;;;;;;;;;;;;;17.20;44.72;101620.50;4971297;28;1980;-46
2023/11/23 08:24:29;;;;;;;;;;;;;;;16.68;46.13;101608.56;4962986;28;1353;-43
2023/11/23 08:26:54;;;;;;;;;;;;;;;16.46;46.66;101607.19;4959678;28;1120;-48
2023/11/23 08:29:20;;;;;;;;;;;;;;;17.43;44.53;101596.09;4959804;28;1398;-47
2023/11/23 08:31:46;;;;;;;;;;;;;;;16.88;45.41;101608.19;4959456;29;1117;-45
2023/11/23 08:34:11;;;;;;;;;;;;;;;16.53;46.17;101608.53;4964906;28;1330;-48
2023/11/23 08:36:37;;;;;;;;;;;;;;;17.05;45.11;101611.63;4959228;28;1121;-47
2023/11/23 08:39:04;;;;;;;;;;;;;;;17.23;44.83;101604.34;4975948;28;1112;-46
2023/11/23 08:41:30;;;;;;;;;;;;;;;16.78;45.47;101607.06;4968092;28;1972;-46
2023/11/23 08:43:56;;;;;;;;;;;;;;;16.49;46.19;101605.19;4963424;28;1088;-50
2023/11/23 08:46:21;;;;;;;;;;;;;;;16.75;46.34;101601.91;4969447;28;882;-46
2023/11/23 08:48:47;;;;;;;;;;;;;;;17.62;44.12;101599.28;4973359;28;1141;-47
2023/11/23 08:51:13;;;;;;;;;;;;;;;16.99;45.23;101591.63;4961222;28;1267;-46
2023/11/23 08:53:39;;;;;;;;;;;;;;;16.61;46.29;101597.44;4959701;28;1084;-45
2023/11/23 08:56:05;;;;;;;;;;;;;;;16.84;45.84;101585.44;4959518;28;1342;-47
2023/11/23 08:58:30;;;;;;;;;;;;;;;17.78;43.66;101581.47;4960762;28;1176;-47
2023/11/23 09:00:56;;;;;;;;;;;;;;;17.04;45.11;101588.66;4959458;28;1267;-46
2023/11/23 09:03:22;;;;;;;;;;;;;;;16.75;45.90;101585.97;4959424;29;1981;-46
2023/11/23 09:05:47;;;;;;;;;;;;;;;16.62;46.42;101586.72;4959483;29;1386;-48
2023/11/23 09:08:13;;;;;;;;;;;;;;;17.59;44.10;101580.00;4959217;28;1100;-48
2023/11/23 09:10:39;;;;;;;;;;;;;;;16.96;45.39;101578.53;4963851;28;1299;-50
2023/11/23 09:13:05;;;;;;;;;;;;;;;16.65;46.17;101575.91;4969752;28;1085;-48
2023/11/23 09:15:33;;;;;;;;;;;;;;;17.07;45.56;101575.19;4971966;28;1033;-47
2023/11/23 09:17:59;;;;;;;;;;;;;;;17.25;44.78;101561.72;4958534;28;1002;-44
2023/11/23 09:20:25;;;;;;;;;;;;;;;16.74;45.89;101557.72;4978096;28;1076;-45
2023/11/23 09:22:50;;;;;;;;;;;;;;;16.64;46.18;101558.28;4968676;28;1968;-46
2023/11/23 09:25:16;;;;;;;;;;;;;;;17.57;44.18;101552.63;4959035;28;1204;-45
2023/11/23 09:27:42;;;;;;;;;;;;;;;16.93;45.34;101551.28;4963690;28;1046;-45
2023/11/23 09:30:08;;;;;;;;;;;;;;;16.74;45.94;101542.63;4977849;28;997;-46
2023/11/23 09:32:36;;;;;;;;;;;;;;;17.62;43.99;101531.91;4977484;28;1055;-47
2023/11/23 09:35:03;;;;;;;;;;;;;;;16.98;45.40;101533.25;4974902;28;1001;-46
2023/11/23 09:37:28;;;;;;;;;;;;;;;16.69;45.96;101531.44;4964800;28;1105;-47
2023/11/23 09:39:54;;;;;;;;;;;;;;;16.47;46.33;101527.41;4965451;28;1009;-45
2023/11/23 09:42:20;;;;;;;;;;;;;;;17.54;44.38;101519.13;4976252;28;1906;-47
2023/11/23 09:44:45;;;;;;;;;;;;;;;16.95;45.34;101526.28;4965991;28;1032;-47
2023/11/23 09:47:12;;;;;;;;;;;;;;;16.61;46.18;101515.97;4960784;28;1085;-48
2023/11/23 09:49:37;;;;;;;;;;;;;;;16.50;46.53;101523.69;4964562;28;1006;-46
2023/11/23 09:52:03;;;;;;;;;;;;;;;17.48;44.14;101520.34;4976620;28;1119;-46
2023/11/23 09:54:30;;;;;;;;;;;;;;;16.92;45.23;101515.84;4957132;28;1134;-48
2023/11/23 09:56:55;;;;;;;;;;;;;;;16.53;46.38;101518.22;4972304;28;1207;-47
2023/11/23 09:59:23;;;;;;;;;;;;;;;17.38;44.85;101516.59;4959793;28;884;-47
2023/11/23 10:01:54;;;;;;;;;;;;;;;16.89;45.41;101508.06;4958277;28;1902;-49
2023/11/23 10:04:19;;;;;;;;;;;;;;;16.59;46.40;101516.97;4966739;28;1114;-45
2023/11/23 10:06:45;;;;;;;;;;;;;;;17.43;44.31;101500.34;4977253;28;1121;-46
2023/11/23 10:09:16;;;;;;;;;;;;;;;16.96;45.46;101504.09;4977339;28;1111;-46
2023/11/23 10:11:42;;;;;;;;;;;;;;;16.51;46.16;101494.41;4961621;28;928;-47
2023/11/23 10:14:08;;;;;;;;;;;;;;;17.38;44.54;101485.50;4977714;28;1083;-48
2023/11/23 10:16:34;;;;;;;;;;;;;;;17.01;45.04;101485.19;4976451;28;1088;-46
2023/11/23 10:18:59;;;;;;;;;;;;;;;16.63;46.15;101487.47;4977776;28;1073;-45
2023/11/23 10:21:25;;;;;;;;;;;;;;;16.45;46.62;101478.00;4974215;28;1910;-45
2023/11/23 10:23:50;;;;;;;;;;;;;;;17.46;44.37;101470.88;4966267;28;886;-47
2023/11/23 10:26:16;;;;;;;;;;;;;;;16.94;45.21;101466.13;4972754;28;1105;-47
2023/11/23 10:28:41;;;;;;;;;;;;;;;16.60;46.07;101452.31;4968200;28;1061;-48
2023/11/23 10:31:07;;;;;;;;;;;;;;;17.31;44.71;101452.31;4972861;28;1112;-46
2023/11/23 10:33:37;;;;;;;;;;;;;;;17.13;44.77;101441.91;4977046;28;1151;-44
2023/11/23 10:36:05;;;;;;;;;;;;;;;16.74;45.76;101436.34;4972288;28;863;-43
2023/11/23 10:38:36;;;;;;;;;;;;;;;16.76;46.07;101423.84;4976980;28;1178;-47
2023/11/23 10:41:01;;;;;;;;;;;;;;;17.41;44.24;101414.47;4976185;28;1045;-45
2023/11/23 10:43:27;;;;;;;;;;;;;;;16.84;45.64;101402.06;4966878;28;1989;-47
2023/11/23 10:45:53;;;;;;;;;;;;;;;16.58;46.27;101403.72;4970205;28;1027;-46
2023/11/23 10:48:19;;;;;;;;;;;;;;;17.63;44.03;101401.44;4965674;28;1120;-45
2023/11/23 10:50:45;;;;;;;;;;;;;;;17.05;44.93;101395.47;4973642;28;947;-47
2023/11/23 10:53:10;;;;;;;;;;;;;;;16.69;45.59;101390.63;4976548;28;1089;-46
2023/11/23 10:55:36;;;;;;;;;;;;;;;16.53;46.15;101393.41;4976922;28;930;-45
2023/11/23 10:58:04;;;;;;;;;;;;;;;17.35;44.76;101375.84;4968981;28;1128;-46
2023/11/23 11:00:29;;;;;;;;;;;;;;;17.09;44.84;101400.53;4975170;28;1003;-47
2023/11/23 11:02:57;;;;;;;;;;;;;;;17.96;44.57;101372.66;4976578;28;1934;-46
2023/11/23 11:05:30;;;;;;;;;;;;;;;18.15;43.89;101375.88;4958109;28;1258;-47
2023/11/23 11:08:01;;;;;;;;;;;;;;;19.09;42.24;101368.28;4968094;28;1030;-43
2023/11/23 11:10:50;;;;;;;;;;;;;;;17.37;45.87;101376.56;4956750;28;1303;-48
2023/11/23 11:13:16;;;;;;;;;;;;;;;18.28;44.79;101378.53;4962660;28;1323;-48
2023/11/23 11:15:52;;;;;;;;;;;;;;;16.90;47.19;101379.56;4956677;28;1034;-56
2023/11/23 11:18:25;;;;;;;;;;;;;;;16.57;48.28;101359.50;4957456;28;1377;-51
2023/11/23 11:21:00;;;;;;;;;;;;;;;17.45;46.36;101346.84;4967590;28;1088;-58
2023/11/23 11:23:39;;;;;;;;;;;;;;;18.58;44.95;101343.50;4967012;28;1902;-49
2023/11/23 11:26:10;;;;;;;;;;;;;;;18.39;44.44;101348.44;4951069;28;1580;-49
2023/11/23 11:28:37;;;;;;;;;;;;;;;18.18;46.11;101351.69;4945149;28;1133;-52
2023/11/23 11:31:06;;;;;;;;;;;;;;;17.70;45.91;101353.16;4969163;28;1058;-55
2023/11/23 11:33:32;;;;;;;;;;;;;;;17.81;46.75;101342.63;4964177;28;1120;-52
2023/11/23 11:35:58;;;;;;;;;;;;;;;18.25;45.62;101346.78;4956257;28;1236;-58
2023/11/23 11:38:24;;;;;;;;;;;;;;;18.90;44.70;101333.28;4978056;28;1468;-58
2023/11/23 11:40:50;;;;;;;;;;;;;;;17.70;46.50;101334.53;4963805;28;1118;-55
2023/11/23 11:43:15;;;;;;;;;;;;;;;18.12;46.76;101328.97;4965060;28;1988;-54
2023/11/23 11:45:41;;;;;;;;;;;;;;;18.45;46.20;101342.72;4970312;28;1011;-54
2023/11/23 11:48:07;;;;;;;;;;;;;;;19.38;44.12;101335.09;4972943;28;919;-56
2023/11/23 11:50:33;;;;;;;;;;;;;;;18.89;45.00;101332.41;4958824;28;1145;-59
2023/11/23 11:52:58;;;;;;;;;;;;;;;18.54;45.75;101331.38;4958859;28;1101;-55
2023/11/23 11:55:26;;;;;;;;;;;;;;;18.40;46.19;101326.19;4959866;28;1133;-55
2023/11/23 11:57:52;;;;;;;;;;;;;;;19.20;44.85;101327.50;4960790;28;1168;-58
2023/11/23 12:00:17;;;;;;;;;;;;;;;19.22;45.14;101324.72;4960007;28;887;-61
2023/11/23 12:02:43;;;;;;;;;;;;;;;18.03;46.82;101322.50;4958880;28;1903;-60
2023/11/23 12:05:09;;;;;;;;;;;;;;;18.51;46.78;101320.09;4958675;28;957;-60
2023/11/23 12:07:35;;;;;;;;;;;;;;;18.58;46.15;101310.69;4953801;28;1117;-52
2023/11/23 12:10:00;;;;;;;;;;;;;;;17.95;47.31;101311.53;4958079;28;1017;-51
2023/11/23 12:12:26;;;;;;;;;;;;;;;17.29;49.01;101304.44;4958165;28;1081;-57
2023/11/23 12:14:54;;;;;;;;;;;;;;;17.28;48.96;101300.09;4950479;29;1030;-50
2023/11/23 12:17:20;;;;;;;;;;;;;;;17.41;47.97;101289.47;4957178;28;1432;-50
2023/11/23 12:19:50;;;;;;;;;;;;;;;16.85;49.24;101294.81;4959708;28;998;-51
2023/11/23 12:22:18;;;;;;;;;;;;;;;17.11;50.13;101286.97;4958827;28;1910;-54
2023/11/23 12:24:44;;;;;;;;;;;;;;;16.97;49.96;101289.66;4953627;28;1320;-47
2023/11/23 12:27:12;;;;;;;;;;;;;;;18.54;47.00;101298.53;4948662;28;1289;-52
2023/11/23 12:29:38;;;;;;;;;;;;;;;19.47;44.91;101290.81;4957255;28;1057;-51
2023/11/23 12:32:04;;;;;;;;;;;;;;;17.05;50.43;101276.69;4958723;28;1210;-52
2023/11/23 12:34:30;;;;;;;;;;;;;;;18.56;47.69;101278.84;4951071;28;1317;-45
2023/11/23 12:36:58;;;;;;;;;;;;;;;18.78;46.41;101271.91;4958108;28;1005;-49
2023/11/23 12:39:28;;;;;;;;;;;;;;;16.62;51.46;101267.97;4954845;28;1281;-54
2023/11/23 12:41:53;;;;;;;;;;;;;;;19.03;46.98;101263.91;4952107;28;1969;-52
2023/11/23 12:44:19;;;;;;;;;;;;;;;17.68;49.43;101259.28;4955643;28;1286;-49